sensor_id;sensor_type;location;lat;lon;timestamp;temperature;humidity
3727;DHT22;1879;45.876;12.300;2023-11-19T00:00:31;6.40;99.90
3727;DHT22;1879;45.876;12.300;2023-11-19T00:02:59;6.50;99.90
3727;DHT22;1879;45.876;12.300;2023-11-19T00:05:27;6.60;99.90
3727;DHT22;1879;45.876;12.300;2023-11-19T00:07:54;6.80;99.90
3727;DHT22;1879;45.876;12.300;2023-11-19T00:10:21;6.90;99.90
3727;DHT22;1879;45.876;12.300;2023-11-19T00:12:50;6.90;99.90
3727;DHT22;1879;45.876;12.300;2023-11-19T00:15:18;6.90;99.90
3727;DHT22;1879;45.876;12.300;2023-11-19T00:17:46;6.90;99.90
3727;DHT22;1879;45.876;12.300;2023-11-19T00:20:15;6.90;99.90
3727;DHT22;1879;45.876;12.300;2023-11-19T00:22:43;6.90;99.90
3727;DHT22;1879;45.876;12.300;2023-11-19T00:25:11;6.90;99.90
3727;DHT22;1879;45.876;12.300;2023-11-19T00:27:38;6.90;99.90
3727;DHT22;1879;45.876;12.300;2023-11-19T00:30:06;6.90;99.90
3727;DHT22;1879;45.876;12.300;2023-11-19T00:32:34;6.80;99.90
3727;DHT22;1879;45.876;12.300;2023-11-19T00:35:02;6.80;99.90
3727;DHT22;1879;45.876;12.300;2023-11-19T00:37:30;6.80;99.90
3727;DHT22;1879;45.876;12.300;2023-11-19T00:39:57;6.70;99.90
3727;DHT22;1879;45.876;12.300;2023-11-19T00:42:25;6.70;99.90
3727;DHT22;1879;45.876;12.300;2023-11-19T00:44:52;6.70;99.90
3727;DHT22;1879;45.876;12.300;2023-11-19T00:47:19;6.70;99.90
3727;DHT22;1879;45.876;12.300;2023-11-19T00:49:46;6.70;99.90
3727;DHT22;1879;45.876;12.300;2023-11-19T00:52:15;6.60;99.90
3727;DHT22;1879;45.876;12.300;2023-11-19T00:54:43;6.60;99.90
3727;DHT22;1879;45.876;12.300;2023-11-19T00:57:10;6.60;99.90
3727;DHT22;1879;45.876;12.300;2023-11-19T00:59:37;6.60;99.90
3727;DHT22;1879;45.876;12.300;2023-11-19T01:02:04;6.60;99.90
3727;DHT22;1879;45.876;12.300;2023-11-19T01:04:33;6.60;99.90
3727;DHT22;1879;45.876;12.300;2023-11-19T01:07:02;6.60;99.90
3727;DHT22;1879;45.876;12.300;2023-11-19T01:09:30;6.60;99.90
3727;DHT22;1879;45.876;12.300;2023-11-19T01:12:01;6.60;99.90
3727;DHT22;1879;45.876;12.300;2023-11-19T01:14:29;6.50;99.90
3727;DHT22;1879;45.876;12.300;2023-11-19T01:16:56;6.40;99.90
3727;DHT22;1879;45.876;12.300;2023-11-19T01:19:23;6.40;99.90
3727;DHT22;1879;45.876;12.300;2023-11-19T01:21:50;6.40;99.90
3727;DHT22;1879;45.876;12.300;2023-11-19T01:24:17;6.40;99.90
3727;DHT22;1879;45.876;12.300;2023-11-19T01:26:44;6.50;99.90
3727;DHT22;1879;45.876;12.300;2023-11-19T01:29:14;6.50;99.90
3727;DHT22;1879;45.876;12.300;2023-11-19T01:31:41;6.50;99.90
3727;DHT22;1879;45.876;12.300;2023-11-19T01:34:08;6.50;99.90
3727;DHT22;1879;45.876;12.300;2023-11-19T01:36:36;6.50;99.90
3727;DHT22;1879;45.876;12.300;2023-11-19T01:39:03;6.50;99.90
3727;DHT22;1879;45.876;12.300;2023-11-19T01:41:34;6.50;99.90
3727;DHT22;1879;45.876;12.300;2023-11-19T01:44:02;6.50;99.90
3727;DHT22;1879;45.876;12.300;2023-11-19T01:46:31;6.60;99.90
3727;DHT22;1879;45.876;12.300;2023-11-19T01:48:59;6.60;99.90
3727;DHT22;1879;45.876;12.300;2023-11-19T01:51:27;6.50;99.90
3727;DHT22;1879;45.876;12.300;2023-11-19T01:53:55;6.50;99.90
3727;DHT22;1879;45.876;12.300;2023-11-19T01:56:23;6.50;99.90
3727;DHT22;1879;45.876;12.300;2023-11-19T01:58:51;6.40;99.90
3727;DHT22;1879;45.876;12.300;2023-11-19T02:01:18;6.40;99.90
3727;DHT22;1879;45.876;12.300;2023-11-19T02:03:47;6.40;99.90
3727;DHT22;1879;45.876;12.300;2023-11-19T02:06:14;6.30;99.90
3727;DHT22;1879;45.876;12.300;2023-11-19T02:08:42;6.30;99.90
3727;DHT22;1879;45.876;12.300;2023-11-19T02:11:09;6.20;99.90
3727;DHT22;1879;45.876;12.300;2023-11-19T02:13:37;6.30;99.90
3727;DHT22;1879;45.876;12.300;2023-11-19T02:16:07;6.30;99.90
3727;DHT22;1879;45.876;12.300;2023-11-19T02:18:35;6.40;99.90
3727;DHT22;1879;45.876;12.300;2023-11-19T02:21:03;6.40;99.90
3727;DHT22;1879;45.876;12.300;2023-11-19T02:23:31;6.40;99.90
3727;DHT22;1879;45.876;12.300;2023-11-19T02:26:05;6.40;99.90
3727;DHT22;1879;45.876;12.300;2023-11-19T02:28:36;6.30;99.90
3727;DHT22;1879;45.876;12.300;2023-11-19T02:31:04;6.20;99.90
3727;DHT22;1879;45.876;12.300;2023-11-19T02:33:35;6.20;99.90
3727;DHT22;1879;45.876;12.300;2023-11-19T02:36:02;6.10;99.90
3727;DHT22;1879;45.876;12.300;2023-11-19T02:38:29;6.20;99.90
3727;DHT22;1879;45.876;12.300;2023-11-19T02:40:57;6.20;99.90
3727;DHT22;1879;45.876;12.300;2023-11-19T02:43:24;6.20;99.90
3727;DHT22;1879;45.876;12.300;2023-11-19T02:45:52;6.30;99.90
3727;DHT22;1879;45.876;12.300;2023-11-19T02:48:21;6.30;99.90
3727;DHT22;1879;45.876;12.300;2023-11-19T02:50:48;6.30;99.90
3727;DHT22;1879;45.876;12.300;2023-11-19T02:53:15;6.30;99.90
3727;DHT22;1879;45.876;12.300;2023-11-19T02:55:43;6.40;99.90
3727;DHT22;1879;45.876;12.300;2023-11-19T02:58:14;6.40;99.90
3727;DHT22;1879;45.876;12.300;2023-11-19T03:00:49;6.30;99.90
3727;DHT22;1879;45.876;12.300;2023-11-19T03:03:24;6.30;99.90
3727;DHT22;1879;45.876;12.300;2023-11-19T03:05:54;6.30;99.90
3727;DHT22;1879;45.876;12.300;2023-11-19T03:08:21;6.40;99.90
3727;DHT22;1879;45.876;12.300;2023-11-19T03:10:49;6.40;99.90
3727;DHT22;1879;45.876;12.300;2023-11-19T03:13:16;6.40;99.90
3727;DHT22;1879;45.876;12.300;2023-11-19T03:15:43;6.40;99.90
3727;DHT22;1879;45.876;12.300;2023-11-19T03:18:11;6.30;99.90
3727;DHT22;1879;45.876;12.300;2023-11-19T03:20:39;6.30;99.90
3727;DHT22;1879;45.876;12.300;2023-11-19T03:23:06;6.20;99.90
3727;DHT22;1879;45.876;12.300;2023-11-19T03:25:33;6.20;99.90
3727;DHT22;1879;45.876;12.300;2023-11-19T03:28:02;6.20;99.90
3727;DHT22;1879;45.876;12.300;2023-11-19T03:30:29;6.20;99.90
3727;DHT22;1879;45.876;12.300;2023-11-19T03:32:57;6.30;99.90
3727;DHT22;1879;45.876;12.300;2023-11-19T03:35:25;6.30;99.90
3727;DHT22;1879;45.876;12.300;2023-11-19T03:37:55;6.40;99.90
3727;DHT22;1879;45.876;12.300;2023-11-19T03:40:22;6.40;99.90
3727;DHT22;1879;45.876;12.300;2023-11-19T03:42:50;6.40;99.90
3727;DHT22;1879;45.876;12.300;2023-11-19T03:45:17;6.40;99.90
3727;DHT22;1879;45.876;12.300;2023-11-19T03:47:44;6.30;99.90
3727;DHT22;1879;45.876;12.300;2023-11-19T03:50:11;6.20;99.90
3727;DHT22;1879;45.876;12.300;2023-11-19T03:52:41;6.20;99.90
3727;DHT22;1879;45.876;12.300;2023-11-19T03:55:09;6.20;99.90
3727;DHT22;1879;45.876;12.300;2023-11-19T03:57:38;6.10;99.90
3727;DHT22;1879;45.876;12.300;2023-11-19T04:00:05;6.10;99.90
3727;DHT22;1879;45.876;12.300;2023-11-19T04:02:35;6.00;99.90
3727;DHT22;1879;45.876;12.300;2023-11-19T04:05:02;6.00;99.90
3727;DHT22;1879;45.876;12.300;2023-11-19T04:07:30;6.00;99.90
3727;DHT22;1879;45.876;12.300;2023-11-19T04:09:58;6.10;99.90
3727;DHT22;1879;45.876;12.300;2023-11-19T04:12:27;6.10;99.90
3727;DHT22;1879;45.876;12.300;2023-11-19T04:14:54;6.10;99.90
3727;DHT22;1879;45.876;12.300;2023-11-19T04:17:21;6.10;99.90
3727;DHT22;1879;45.876;12.300;2023-11-19T04:19:49;6.10;99.90
3727;DHT22;1879;45.876;12.300;2023-11-19T04:22:16;6.10;99.90
3727;DHT22;1879;45.876;12.300;2023-11-19T04:24:42;6.10;99.90
3727;DHT22;1879;45.876;12.300;2023-11-19T04:27:11;6.10;99.90
3727;DHT22;1879;45.876;12.300;2023-11-19T04:29:39;6.00;99.90
3727;DHT22;1879;45.876;12.300;2023-11-19T04:32:06;6.00;99.90
3727;DHT22;1879;45.876;12.300;2023-11-19T04:34:33;6.00;99.90
3727;DHT22;1879;45.876;12.300;2023-11-19T04:37:01;6.00;99.90
3727;DHT22;1879;45.876;12.300;2023-11-19T04:39:29;6.00;99.90
3727;DHT22;1879;45.876;12.300;2023-11-19T04:41:56;6.00;99.90
3727;DHT22;1879;45.876;12.300;2023-11-19T04:44:23;6.00;99.90
3727;DHT22;1879;45.876;12.300;2023-11-19T04:46:51;6.10;99.90
3727;DHT22;1879;45.876;12.300;2023-11-19T04:49:18;6.00;99.90
3727;DHT22;1879;45.876;12.300;2023-11-19T04:51:46;5.90;99.90
3727;DHT22;1879;45.876;12.300;2023-11-19T04:54:13;5.80;99.90
3727;DHT22;1879;45.876;12.300;2023-11-19T04:56:40;5.80;99.90
3727;DHT22;1879;45.876;12.300;2023-11-19T04:59:11;5.80;99.90
3727;DHT22;1879;45.876;12.300;2023-11-19T05:01:38;5.80;99.90
3727;DHT22;1879;45.876;12.300;2023-11-19T05:04:07;5.80;99.90
3727;DHT22;1879;45.876;12.300;2023-11-19T05:06:34;5.80;99.90
3727;DHT22;1879;45.876;12.300;2023-11-19T05:09:01;5.80;99.90
3727;DHT22;1879;45.876;12.300;2023-11-19T05:11:30;5.80;99.90
3727;DHT22;1879;45.876;12.300;2023-11-19T05:13:58;5.80;99.90
3727;DHT22;1879;45.876;12.300;2023-11-19T05:16:25;5.70;99.90
3727;DHT22;1879;45.876;12.300;2023-11-19T05:18:52;5.70;99.90
3727;DHT22;1879;45.876;12.300;2023-11-19T05:21:20;5.70;99.90
3727;DHT22;1879;45.876;12.300;2023-11-19T05:23:47;5.70;99.90
3727;DHT22;1879;45.876;12.300;2023-11-19T05:26:18;5.70;99.90
3727;DHT22;1879;45.876;12.300;2023-11-19T05:28:47;5.60;99.90
3727;DHT22;1879;45.876;12.300;2023-11-19T05:31:15;5.60;99.90
3727;DHT22;1879;45.876;12.300;2023-11-19T05:33:42;5.60;99.90
3727;DHT22;1879;45.876;12.300;2023-11-19T05:36:11;5.60;99.90
3727;DHT22;1879;45.876;12.300;2023-11-19T05:38:40;5.70;99.90
3727;DHT22;1879;45.876;12.300;2023-11-19T05:41:07;5.60;99.90
3727;DHT22;1879;45.876;12.300;2023-11-19T05:43:34;5.60;99.90
3727;DHT22;1879;45.876;12.300;2023-11-19T05:46:01;5.60;99.90
3727;DHT22;1879;45.876;12.300;2023-11-19T05:48:28;5.50;99.90
3727;DHT22;1879;45.876;12.300;2023-11-19T05:50:55;5.40;99.90
3727;DHT22;1879;45.876;12.300;2023-11-19T05:53:22;5.40;99.90
3727;DHT22;1879;45.876;12.300;2023-11-19T05:55:51;5.40;99.90
3727;DHT22;1879;45.876;12.300;2023-11-19T05:58:23;5.30;99.90
3727;DHT22;1879;45.876;12.300;2023-11-19T06:00:54;5.30;99.90
3727;DHT22;1879;45.876;12.300;2023-11-19T06:03:21;5.30;99.90
3727;DHT22;1879;45.876;12.300;2023-11-19T06:05:48;5.30;99.90
3727;DHT22;1879;45.876;12.300;2023-11-19T06:08:15;5.30;99.90
3727;DHT22;1879;45.876;12.300;2023-11-19T06:10:43;5.30;99.90
3727;DHT22;1879;45.876;12.300;2023-11-19T06:13:13;5.30;99.90
3727;DHT22;1879;45.876;12.300;2023-11-19T06:15:40;5.30;99.90
3727;DHT22;1879;45.876;12.300;2023-11-19T06:18:08;5.20;99.90
3727;DHT22;1879;45.876;12.300;2023-11-19T06:20:35;5.20;99.90
3727;DHT22;1879;45.876;12.300;2023-11-19T06:23:02;5.10;99.90
3727;DHT22;1879;45.876;12.300;2023-11-19T06:25:29;5.20;99.90
3727;DHT22;1879;45.876;12.300;2023-11-19T06:27:56;5.20;99.90
3727;DHT22;1879;45.876;12.300;2023-11-19T06:30:25;5.30;99.90
3727;DHT22;1879;45.876;12.300;2023-11-19T06:32:53;5.30;99.90
3727;DHT22;1879;45.876;12.300;2023-11-19T06:35:20;5.30;99.90
3727;DHT22;1879;45.876;12.300;2023-11-19T06:37:47;5.30;99.90
3727;DHT22;1879;45.876;12.300;2023-11-19T06:40:15;5.30;99.90
3727;DHT22;1879;45.876;12.300;2023-11-19T06:42:42;5.30;99.90
3727;DHT22;1879;45.876;12.300;2023-11-19T06:45:09;5.30;99.90
3727;DHT22;1879;45.876;12.300;2023-11-19T06:47:37;5.30;99.90
3727;DHT22;1879;45.876;12.300;2023-11-19T06:50:06;5.40;99.90
3727;DHT22;1879;45.876;12.300;2023-11-19T06:52:33;5.40;99.90
3727;DHT22;1879;45.876;12.300;2023-11-19T06:55:00;5.40;99.90
3727;DHT22;1879;45.876;12.300;2023-11-19T06:57:27;5.40;99.90
3727;DHT22;1879;45.876;12.300;2023-11-19T06:59:55;5.40;99.90
3727;DHT22;1879;45.876;12.300;2023-11-19T07:02:22;5.40;99.90
3727;DHT22;1879;45.876;12.300;2023-11-19T07:04:50;5.50;99.90
3727;DHT22;1879;45.876;12.300;2023-11-19T07:07:20;5.50;99.90
3727;DHT22;1879;45.876;12.300;2023-11-19T07:09:47;5.60;99.90
3727;DHT22;1879;45.876;12.300;2023-11-19T07:12:14;5.60;99.90
3727;DHT22;1879;45.876;12.300;2023-11-19T07:14:41;5.60;99.90
3727;DHT22;1879;45.876;12.300;2023-11-19T07:17:08;5.70;99.90
3727;DHT22;1879;45.876;12.300;2023-11-19T07:19:36;5.70;99.90
3727;DHT22;1879;45.876;12.300;2023-11-19T07:22:05;5.70;99.90
3727;DHT22;1879;45.876;12.300;2023-11-19T07:24:33;5.70;99.90
3727;DHT22;1879;45.876;12.300;2023-11-19T07:27:00;5.80;99.90
3727;DHT22;1879;45.876;12.300;2023-11-19T07:29:29;5.80;99.90
3727;DHT22;1879;45.876;12.300;2023-11-19T07:31:57;6.00;99.90
3727;DHT22;1879;45.876;12.300;2023-11-19T07:34:24;6.20;99.90
3727;DHT22;1879;45.876;12.300;2023-11-19T07:36:51;6.30;99.90
3727;DHT22;1879;45.876;12.300;2023-11-19T07:39:20;6.50;99.90
3727;DHT22;1879;45.876;12.300;2023-11-19T07:41:47;6.60;99.90
3727;DHT22;1879;45.876;12.300;2023-11-19T07:44:15;6.70;99.90
3727;DHT22;1879;45.876;12.300;2023-11-19T07:46:42;6.70;99.90
3727;DHT22;1879;45.876;12.300;2023-11-19T07:49:11;6.90;99.90
3727;DHT22;1879;45.876;12.300;2023-11-19T07:51:38;6.90;99.90
3727;DHT22;1879;45.876;12.300;2023-11-19T07:54:05;6.90;99.90
3727;DHT22;1879;45.876;12.300;2023-11-19T07:56:34;7.00;99.90
3727;DHT22;1879;45.876;12.300;2023-11-19T07:59:02;7.00;99.90
3727;DHT22;1879;45.876;12.300;2023-11-19T08:01:29;7.10;99.90
3727;DHT22;1879;45.876;12.300;2023-11-19T08:03:56;7.20;99.90
3727;DHT22;1879;45.876;12.300;2023-11-19T08:06:23;7.30;99.90
3727;DHT22;1879;45.876;12.300;2023-11-19T08:08:50;7.40;99.90
3727;DHT22;1879;45.876;12.300;2023-11-19T08:11:17;7.50;99.90
3727;DHT22;1879;45.876;12.300;2023-11-19T08:13:46;7.60;99.90
3727;DHT22;1879;45.876;12.300;2023-11-19T08:16:13;7.70;99.90
3727;DHT22;1879;45.876;12.300;2023-11-19T08:18:42;7.80;99.90
3727;DHT22;1879;45.876;12.300;2023-11-19T08:21:09;7.90;99.90
3727;DHT22;1879;45.876;12.300;2023-11-19T08:23:40;8.10;99.90
3727;DHT22;1879;45.876;12.300;2023-11-19T08:26:07;8.30;99.90
3727;DHT22;1879;45.876;12.300;2023-11-19T08:28:34;8.40;99.90
3727;DHT22;1879;45.876;12.300;2023-11-19T08:31:02;8.60;99.90
3727;DHT22;1879;45.876;12.300;2023-11-19T08:33:31;8.60;99.90
3727;DHT22;1879;45.876;12.300;2023-11-19T08:35:58;8.70;99.90
3727;DHT22;1879;45.876;12.300;2023-11-19T08:38:26;8.80;99.90
3727;DHT22;1879;45.876;12.300;2023-11-19T08:40:53;8.90;99.90
3727;DHT22;1879;45.876;12.300;2023-11-19T08:43:25;9.00;99.90
3727;DHT22;1879;45.876;12.300;2023-11-19T08:45:52;9.10;99.90
3727;DHT22;1879;45.876;12.300;2023-11-19T08:48:20;9.30;99.90
3727;DHT22;1879;45.876;12.300;2023-11-19T08:50:47;9.50;99.90
3727;DHT22;1879;45.876;12.300;2023-11-19T08:53:14;9.70;99.90
3727;DHT22;1879;45.876;12.300;2023-11-19T08:55:41;9.90;99.90
3727;DHT22;1879;45.876;12.300;2023-11-19T08:58:08;10.00;98.10
3727;DHT22;1879;45.876;12.300;2023-11-19T09:00:35;10.10;97.90
3727;DHT22;1879;45.876;12.300;2023-11-19T09:03:03;10.20;97.30
3727;DHT22;1879;45.876;12.300;2023-11-19T09:05:31;10.20;97.50
3727;DHT22;1879;45.876;12.300;2023-11-19T09:07:58;10.30;97.30
3727;DHT22;1879;45.876;12.300;2023-11-19T09:10:25;10.40;97.70
3727;DHT22;1879;45.876;12.300;2023-11-19T09:12:52;10.50;97.80
3727;DHT22;1879;45.876;12.300;2023-11-19T09:15:19;10.60;97.10
3727;DHT22;1879;45.876;12.300;2023-11-19T09:17:46;10.70;96.50
3727;DHT22;1879;45.876;12.300;2023-11-19T09:20:13;10.90;95.90
3727;DHT22;1879;45.876;12.300;2023-11-19T09:22:42;11.20;95.20
3727;DHT22;1879;45.876;12.300;2023-11-19T09:25:09;11.50;94.50
3727;DHT22;1879;45.876;12.300;2023-11-19T09:27:36;11.60;92.70
3727;DHT22;1879;45.876;12.300;2023-11-19T09:30:04;11.80;92.20
3727;DHT22;1879;45.876;12.300;2023-11-19T09:32:31;11.90;91.00
3727;DHT22;1879;45.876;12.300;2023-11-19T09:34:58;12.00;91.70
3727;DHT22;1879;45.876;12.300;2023-11-19T09:37:26;12.00;91.10
3727;DHT22;1879;45.876;12.300;2023-11-19T09:39:54;12.10;89.00
3727;DHT22;1879;45.876;12.300;2023-11-19T09:42:24;12.10;87.30
3727;DHT22;1879;45.876;12.300;2023-11-19T09:44:51;12.10;86.80
3727;DHT22;1879;45.876;12.300;2023-11-19T09:47:19;12.10;83.70
3727;DHT22;1879;45.876;12.300;2023-11-19T09:49:46;12.10;83.50
3727;DHT22;1879;45.876;12.300;2023-11-19T09:52:15;12.20;86.50
3727;DHT22;1879;45.876;12.300;2023-11-19T09:54:42;12.20;86.40
3727;DHT22;1879;45.876;12.300;2023-11-19T09:57:11;12.20;85.30
3727;DHT22;1879;45.876;12.300;2023-11-19T09:59:40;12.30;83.60
3727;DHT22;1879;45.876;12.300;2023-11-19T10:02:07;12.30;84.10
3727;DHT22;1879;45.876;12.300;2023-11-19T10:04:35;12.30;82.50
3727;DHT22;1879;45.876;12.300;2023-11-19T10:07:04;12.40;82.20
3727;DHT22;1879;45.876;12.300;2023-11-19T10:09:31;12.40;81.70
3727;DHT22;1879;45.876;12.300;2023-11-19T10:11:58;12.40;80.60
3727;DHT22;1879;45.876;12.300;2023-11-19T10:14:27;12.50;80.60
3727;DHT22;1879;45.876;12.300;2023-11-19T10:16:55;12.50;77.90
3727;DHT22;1879;45.876;12.300;2023-11-19T10:19:22;12.60;77.40
3727;DHT22;1879;45.876;12.300;2023-11-19T10:21:49;12.70;79.20
3727;DHT22;1879;45.876;12.300;2023-11-19T10:24:16;12.70;78.30
3727;DHT22;1879;45.876;12.300;2023-11-19T10:26:57;12.80;78.70
3727;DHT22;1879;45.876;12.300;2023-11-19T10:29:26;12.90;78.70
3727;DHT22;1879;45.876;12.300;2023-11-19T10:31:58;12.90;77.10
3727;DHT22;1879;45.876;12.300;2023-11-19T10:34:26;13.00;77.90
3727;DHT22;1879;45.876;12.300;2023-11-19T10:36:53;13.00;77.30
3727;DHT22;1879;45.876;12.300;2023-11-19T10:39:20;13.00;77.50
3727;DHT22;1879;45.876;12.300;2023-11-19T10:41:49;13.00;77.90
3727;DHT22;1879;45.876;12.300;2023-11-19T10:47:10;13.00;77.00
3727;DHT22;1879;45.876;12.300;2023-11-19T10:49:43;13.10;76.30
3727;DHT22;1879;45.876;12.300;2023-11-19T10:52:12;13.20;77.20
3727;DHT22;1879;45.876;12.300;2023-11-19T10:54:44;13.30;78.40
3727;DHT22;1879;45.876;12.300;2023-11-19T10:57:19;13.50;77.80
3727;DHT22;1879;45.876;12.300;2023-11-19T10:59:47;13.60;77.20
3727;DHT22;1879;45.876;12.300;2023-11-19T11:02:22;13.70;77.90
3727;DHT22;1879;45.876;12.300;2023-11-19T11:04:51;13.90;76.90
3727;DHT22;1879;45.876;12.300;2023-11-19T11:07:21;14.10;77.90
3727;DHT22;1879;45.876;12.300;2023-11-19T11:09:51;14.40;77.70
3727;DHT22;1879;45.876;12.300;2023-11-19T11:12:22;15.10;76.70
3727;DHT22;1879;45.876;12.300;2023-11-19T11:14:49;16.50;75.50
3727;DHT22;1879;45.876;12.300;2023-11-19T11:17:19;18.10;70.50
3727;DHT22;1879;45.876;12.300;2023-11-19T11:19:46;19.80;68.10
3727;DHT22;1879;45.876;12.300;2023-11-19T11:22:14;21.20;62.00
3727;DHT22;1879;45.876;12.300;2023-11-19T11:25:15;21.70;55.10
3727;DHT22;1879;45.876;12.300;2023-11-19T11:27:58;22.40;50.90
3727;DHT22;1879;45.876;12.300;2023-11-19T11:33:15;24.30;47.40
3727;DHT22;1879;45.876;12.300;2023-11-19T11:35:53;24.80;45.80
3727;DHT22;1879;45.876;12.300;2023-11-19T11:38:22;25.30;44.60
3727;DHT22;1879;45.876;12.300;2023-11-19T11:41:15;24.90;42.70
3727;DHT22;1879;45.876;12.300;2023-11-19T11:43:50;24.90;41.10
3727;DHT22;1879;45.876;12.300;2023-11-19T11:46:53;24.70;39.40
3727;DHT22;1879;45.876;12.300;2023-11-19T11:49:28;24.80;40.60
3727;DHT22;1879;45.876;12.300;2023-11-19T11:52:03;25.30;40.20
3727;DHT22;1879;45.876;12.300;2023-11-19T11:54:30;25.60;39.40
3727;DHT22;1879;45.876;12.300;2023-11-19T11:57:02;25.50;39.00
3727;DHT22;1879;45.876;12.300;2023-11-19T11:59:37;26.20;39.50
3727;DHT22;1879;45.876;12.300;2023-11-19T12:02:04;26.40;38.10
3727;DHT22;1879;45.876;12.300;2023-11-19T12:04:36;25.80;36.90
3727;DHT22;1879;45.876;12.300;2023-11-19T12:07:04;23.60;36.90
3727;DHT22;1879;45.876;12.300;2023-11-19T12:09:32;22.00;38.60
3727;DHT22;1879;45.876;12.300;2023-11-19T12:12:11;20.30;39.60
3727;DHT22;1879;45.876;12.300;2023-11-19T12:15:04;19.60;42.00
3727;DHT22;1879;45.876;12.300;2023-11-19T12:17:41;18.70;43.30
3727;DHT22;1879;45.876;12.300;2023-11-19T12:20:11;18.10;44.00
3727;DHT22;1879;45.876;12.300;2023-11-19T12:22:39;17.30;44.40
3727;DHT22;1879;45.876;12.300;2023-11-19T12:25:08;16.80;45.10
3727;DHT22;1879;45.876;12.300;2023-11-19T12:27:35;16.40;46.70
3727;DHT22;1879;45.876;12.300;2023-11-19T12:30:03;16.20;47.10
3727;DHT22;1879;45.876;12.300;2023-11-19T12:32:38;16.00;47.50
3727;DHT22;1879;45.876;12.300;2023-11-19T12:35:06;15.90;48.00
3727;DHT22;1879;45.876;12.300;2023-11-19T12:37:41;15.90;49.50
3727;DHT22;1879;45.876;12.300;2023-11-19T12:40:13;15.90;49.10
3727;DHT22;1879;45.876;12.300;2023-11-19T12:42:40;15.90;49.80
3727;DHT22;1879;45.876;12.300;2023-11-19T12:45:08;16.00;49.40
3727;DHT22;1879;45.876;12.300;2023-11-19T12:47:36;16.30;49.60
3727;DHT22;1879;45.876;12.300;2023-11-19T12:50:04;16.50;50.60
3727;DHT22;1879;45.876;12.300;2023-11-19T12:52:32;16.70;50.70
3727;DHT22;1879;45.876;12.300;2023-11-19T12:55:01;16.60;51.50
3727;DHT22;1879;45.876;12.300;2023-11-19T12:57:38;16.40;51.90
3727;DHT22;1879;45.876;12.300;2023-11-19T13:00:06;16.30;52.40
3727;DHT22;1879;45.876;12.300;2023-11-19T13:02:46;16.10;52.40
3727;DHT22;1879;45.876;12.300;2023-11-19T13:05:22;15.90;51.90
3727;DHT22;1879;45.876;12.300;2023-11-19T13:07:49;15.70;52.50
3727;DHT22;1879;45.876;12.300;2023-11-19T13:10:17;15.60;52.40
3727;DHT22;1879;45.876;12.300;2023-11-19T13:12:44;16.00;53.10
3727;DHT22;1879;45.876;12.300;2023-11-19T13:15:25;16.00;53.10
3727;DHT22;1879;45.876;12.300;2023-11-19T13:17:52;15.90;53.60
3727;DHT22;1879;45.876;12.300;2023-11-19T13:20:19;15.80;53.80
3727;DHT22;1879;45.876;12.300;2023-11-19T13:22:55;15.80;53.60
3727;DHT22;1879;45.876;12.300;2023-11-19T13:25:23;15.70;52.10
3727;DHT22;1879;45.876;12.300;2023-11-19T13:27:50;15.70;52.50
3727;DHT22;1879;45.876;12.300;2023-11-19T13:30:17;16.60;53.30
3727;DHT22;1879;45.876;12.300;2023-11-19T13:32:44;18.30;52.30
3727;DHT22;1879;45.876;12.300;2023-11-19T13:35:11;20.20;50.40
3727;DHT22;1879;45.876;12.300;2023-11-19T13:37:38;21.80;48.80
3727;DHT22;1879;45.876;12.300;2023-11-19T13:40:07;23.00;48.20
3727;DHT22;1879;45.876;12.300;2023-11-19T13:42:37;23.60;44.70
3727;DHT22;1879;45.876;12.300;2023-11-19T13:45:07;23.70;43.40
3727;DHT22;1879;45.876;12.300;2023-11-19T13:47:37;24.20;43.80
3727;DHT22;1879;45.876;12.300;2023-11-19T13:50:08;24.80;43.30
3727;DHT22;1879;45.876;12.300;2023-11-19T13:52:35;25.40;42.40
3727;DHT22;1879;45.876;12.300;2023-11-19T13:55:05;25.40;41.70
3727;DHT22;1879;45.876;12.300;2023-11-19T13:57:33;24.90;39.00
3727;DHT22;1879;45.876;12.300;2023-11-19T14:00:01;24.30;39.20
3727;DHT22;1879;45.876;12.300;2023-11-19T14:02:31;24.10;40.40
3727;DHT22;1879;45.876;12.300;2023-11-19T14:04:57;24.20;41.70
3727;DHT22;1879;45.876;12.300;2023-11-19T14:07:24;23.80;41.00
3727;DHT22;1879;45.876;12.300;2023-11-19T14:09:51;23.00;40.70
3727;DHT22;1879;45.876;12.300;2023-11-19T14:12:18;21.80;41.00
3727;DHT22;1879;45.876;12.300;2023-11-19T14:14:45;20.70;41.70
3727;DHT22;1879;45.876;12.300;2023-11-19T14:17:14;19.70;43.10
3727;DHT22;1879;45.876;12.300;2023-11-19T14:19:41;18.70;44.50
3727;DHT22;1879;45.876;12.300;2023-11-19T14:22:08;18.00;45.40
3727;DHT22;1879;45.876;12.300;2023-11-19T14:24:35;17.30;44.80
3727;DHT22;1879;45.876;12.300;2023-11-19T14:27:02;16.80;45.70
3727;DHT22;1879;45.876;12.300;2023-11-19T14:29:29;16.50;47.50
3727;DHT22;1879;45.876;12.300;2023-11-19T14:31:56;16.10;48.00
3727;DHT22;1879;45.876;12.300;2023-11-19T14:34:25;16.00;48.90
3727;DHT22;1879;45.876;12.300;2023-11-19T14:36:52;15.90;49.50
3727;DHT22;1879;45.876;12.300;2023-11-19T14:39:20;15.70;49.80
3727;DHT22;1879;45.876;12.300;2023-11-19T14:41:47;15.70;50.00
3727;DHT22;1879;45.876;12.300;2023-11-19T14:44:15;15.60;52.10
3727;DHT22;1879;45.876;12.300;2023-11-19T14:46:42;15.40;52.40
3727;DHT22;1879;45.876;12.300;2023-11-19T14:49:09;15.10;54.00
3727;DHT22;1879;45.876;12.300;2023-11-19T14:51:38;14.90;53.70
3727;DHT22;1879;45.876;12.300;2023-11-19T14:54:05;14.60;54.30
3727;DHT22;1879;45.876;12.300;2023-11-19T14:56:32;14.40;55.60
3727;DHT22;1879;45.876;12.300;2023-11-19T14:58:59;14.20;56.50
3727;DHT22;1879;45.876;12.300;2023-11-19T15:01:26;14.00;58.00
3727;DHT22;1879;45.876;12.300;2023-11-19T15:03:54;13.90;59.00
3727;DHT22;1879;45.876;12.300;2023-11-19T15:06:23;13.80;59.80
3727;DHT22;1879;45.876;12.300;2023-11-19T15:08:52;13.70;60.60
3727;DHT22;1879;45.876;12.300;2023-11-19T15:11:20;13.70;60.50
3727;DHT22;1879;45.876;12.300;2023-11-19T15:13:47;13.60;60.60
3727;DHT22;1879;45.876;12.300;2023-11-19T15:16:15;13.60;60.60
3727;DHT22;1879;45.876;12.300;2023-11-19T15:18:47;13.50;61.20
3727;DHT22;1879;45.876;12.300;2023-11-19T15:21:15;13.50;61.70
3727;DHT22;1879;45.876;12.300;2023-11-19T15:23:42;13.30;62.80
3727;DHT22;1879;45.876;12.300;2023-11-19T15:26:10;13.30;63.50
3727;DHT22;1879;45.876;12.300;2023-11-19T15:28:37;13.20;64.00
3727;DHT22;1879;45.876;12.300;2023-11-19T15:31:04;13.10;64.90
3727;DHT22;1879;45.876;12.300;2023-11-19T15:33:31;13.00;66.10
3727;DHT22;1879;45.876;12.300;2023-11-19T15:35:58;12.90;66.40
3727;DHT22;1879;45.876;12.300;2023-11-19T15:38:26;12.70;67.90
3727;DHT22;1879;45.876;12.300;2023-11-19T15:40:52;12.50;70.20
3727;DHT22;1879;45.876;12.300;2023-11-19T15:43:21;12.40;72.60
3727;DHT22;1879;45.876;12.300;2023-11-19T15:45:48;12.30;74.90
3727;DHT22;1879;45.876;12.300;2023-11-19T15:48:15;12.20;76.90
3727;DHT22;1879;45.876;12.300;2023-11-19T15:50:43;12.10;78.60
3727;DHT22;1879;45.876;12.300;2023-11-19T15:53:10;12.00;77.70
3727;DHT22;1879;45.876;12.300;2023-11-19T15:55:37;12.00;79.20
3727;DHT22;1879;45.876;12.300;2023-11-19T15:58:04;11.90;79.40
3727;DHT22;1879;45.876;12.300;2023-11-19T16:00:33;11.80;79.60
3727;DHT22;1879;45.876;12.300;2023-11-19T16:03:00;11.80;83.10
3727;DHT22;1879;45.876;12.300;2023-11-19T16:05:28;11.70;83.90
3727;DHT22;1879;45.876;12.300;2023-11-19T16:07:55;11.50;87.30